Terminal Aerodrome Forecast
Issued by NWS

Current Version | Previous Version | Text Only | Print | Product List | Glossary Off
Versions: 1 2 3 4 5 6 7 8 9 10 11 12 13 14 15 16 17 18 19 20 21 22 23 24 25 26 27 28 29 30 31 32

000
FTUS41 KRNK 311140
TAFLWB
TAF
KLWB 311140Z 3112/0112 00000KT 2SM BR OVC100
     FM311400 VRB03KT P6SM -SHRA BKN050
     FM010000 VRB03KT P6SM SCT250
     FM010500 34002KT 2SM BR SCT250
     FM010700 00000KT 1/4SM FG OVC001=

USA.gov is the U.S. government's official web portal to all federal, state and local government web resources and services.